Terminal Aerodrome Forecast
Issued by NWS

Home | Current Version | Previous Version | Graphics & Text | Print | Product List | Glossary On
Versions: 1 2 3 4 5 6 7 8 9 10 11 12 13 14 15 16 17
169
FTUS43 KMPX 212339
TAFRNH
TAF
KRNH 212339Z 2200/2224 03006KT P6SM OVC090
     FM220800 03010KT P6SM OVC030
     FM221100 03014KT 6SM BR VCSH OVC015
     FM221500 03016G26KT 5SM -SN BR OVC008
     FM221800 02017G29KT 2SM -SN BLSN OVC008
     FM222200 01017G30KT 1SM -SN BLSN OVC005=

USA.gov is the U.S. government's official web portal to all federal, state and local government web resources and services.